createdAt,value
2022-10-05T00:02:24.123Z,89.48
2022-10-05T00:04:55.684Z,90.22
2022-10-05T00:07:24.286Z,90.42
2022-10-05T00:10:00.308Z,90.18
2022-10-05T00:12:29.886Z,88.60
2022-10-05T00:15:00.903Z,89.37
2022-10-05T00:17:29.419Z,89.56
2022-10-05T00:19:56.331Z,89.84
2022-10-05T00:22:29.064Z,88.35
2022-10-05T00:24:58.552Z,89.08
2022-10-05T00:27:29.918Z,89.10
2022-10-05T00:30:00.137Z,89.64
2022-10-05T00:32:27.064Z,88.99
2022-10-05T00:34:53.958Z,89.79
2022-10-05T00:37:20.535Z,90.15
2022-10-05T00:39:47.071Z,90.79
2022-10-05T00:42:19.790Z,89.11
2022-10-05T00:44:46.215Z,89.14
2022-10-05T00:47:44.765Z,89.90
2022-10-05T00:50:18.197Z,90.28
2022-10-05T00:52:53.653Z,90.25
2022-10-05T00:55:43.496Z,90.69
2022-10-05T00:58:23.332Z,90.73
2022-10-05T01:00:58.787Z,91.26
2022-10-05T01:03:57.149Z,91.90
2022-10-05T01:06:48.682Z,92.48
2022-10-05T01:09:31.410Z,92.82
2022-10-05T01:12:27.616Z,92.83
2022-10-05T01:15:08.691Z,94.52
2022-10-05T01:17:35.126Z,96.05
2022-10-05T01:20:16.786Z,95.67
2022-10-05T01:22:49.147Z,94.74
2022-10-05T01:25:37.347Z,93.54
2022-10-05T01:31:26.760Z,93.96
2022-10-05T01:34:25.116Z,93.16
2022-10-05T01:37:02.933Z,93.77
2022-10-05T01:39:40.775Z,93.34
2022-10-05T01:42:17.958Z,93.28
2022-10-05T01:45:17.214Z,92.57
2022-10-05T01:47:46.914Z,92.36
2022-10-05T01:50:26.782Z,93.03
2022-10-05T01:53:11.285Z,92.86
2022-10-05T01:55:43.019Z,92.30
2022-10-05T01:58:24.443Z,92.96
2022-10-05T02:01:49.078Z,92.63
2022-10-05T02:04:42.774Z,92.11
2022-10-05T02:07:14.652Z,91.05
2022-10-05T02:09:52.033Z,91.12
2022-10-05T02:12:23.599Z,90.81
2022-10-05T02:14:57.435Z,91.08
2022-10-05T02:17:40.271Z,91.05
2022-10-05T02:20:11.400Z,92.01
2022-10-05T02:22:49.100Z,92.10
2022-10-05T02:25:23.409Z,93.02
2022-10-05T02:28:15.491Z,93.56
2022-10-05T02:30:47.559Z,93.53
2022-10-05T02:33:25.647Z,94.07
2022-10-05T02:35:52.191Z,93.54
2022-10-05T02:38:33.715Z,93.38
2022-10-05T02:41:34.134Z,93.39
2022-10-05T02:44:20.913Z,92.90
2022-10-05T02:47:02.681Z,92.65
2022-10-05T02:49:53.601Z,91.57
2022-10-05T02:52:32.191Z,92.91
2022-10-05T02:54:59.086Z,92.65
2022-10-05T02:57:34.299Z,92.84
2022-10-05T03:00:13.042Z,93.42
2022-10-05T03:03:03.833Z,92.08
2022-10-05T03:05:38.542Z,92.33
2022-10-05T03:08:13.409Z,92.38
2022-10-05T03:10:48.985Z,93.09
2022-10-05T03:13:32.627Z,92.80
2022-10-05T03:16:06.485Z,93.04
2022-10-05T03:18:54.794Z,92.12
2022-10-05T03:21:52.332Z,92.65
2022-10-05T03:25:06.046Z,93.06
2022-10-05T03:27:41.695Z,92.43
2022-10-05T03:30:15.905Z,92.52
2022-10-05T03:33:21.106Z,93.07
2022-10-05T03:35:53.835Z,92.81
2022-10-05T03:38:37.911Z,92.67
2022-10-05T03:41:31.613Z,91.55
2022-10-05T03:44:39.501Z,92.88
2022-10-05T03:47:28.863Z,93.37
2022-10-05T03:50:26.459Z,92.92
2022-10-05T03:53:01.267Z,92.33
2022-10-05T03:55:40.923Z,92.54
2022-10-05T03:58:19.089Z,92.23
2022-10-05T04:00:49.953Z,93.21
2022-10-05T04:03:24.745Z,92.89
2022-10-05T04:05:58.630Z,93.08
2022-10-05T04:08:30.947Z,93.06
2022-10-05T04:11:01.918Z,92.14
2022-10-05T04:13:37.649Z,92.54
2022-10-05T04:16:11.412Z,93.25
2022-10-05T04:18:48.782Z,92.84
2022-10-05T04:21:26.327Z,92.88
2022-10-05T04:24:19.802Z,93.77
2022-10-05T04:26:59.786Z,94.84
2022-10-05T04:29:48.285Z,95.80
2022-10-05T04:32:20.585Z,95.52
2022-10-05T04:35:03.110Z,95.34
2022-10-05T04:37:48.050Z,95.32
2022-10-05T04:41:00.309Z,94.83
2022-10-05T04:43:43.011Z,95.03
2022-10-05T04:46:40.233Z,94.05
2022-10-05T04:49:24.819Z,94.79
2022-10-05T04:52:11.989Z,94.79
2022-10-05T04:55:15.691Z,95.01
2022-10-05T04:58:02.299Z,95.04
2022-10-05T05:00:40.753Z,95.17
2022-10-05T05:03:15.520Z,95.07
2022-10-05T05:06:18.401Z,96.18
2022-10-05T05:08:57.383Z,96.16
2022-10-05T05:11:54.466Z,95.86
2022-10-05T05:14:24.126Z,96.20
2022-10-05T05:17:32.322Z,96.72
2022-10-05T05:20:24.900Z,97.07
2022-10-05T05:22:57.306Z,98.48
2022-10-05T05:25:40.103Z,98.48
2022-10-05T05:28:17.965Z,99.07
2022-10-05T05:30:52.399Z,99.46
2022-10-05T05:33:20.926Z,99.69
2022-10-05T05:36:02.679Z,100.00
2022-10-05T05:38:44.558Z,100.00
2022-10-05T05:41:22.679Z,100.00
2022-10-05T05:44:05.886Z,100.00
2022-10-05T05:47:02.808Z,100.00
2022-10-05T05:49:45.953Z,100.00
2022-10-05T05:52:25.510Z,100.00
2022-10-05T05:55:01.108Z,100.00
2022-10-05T05:57:48.563Z,100.00
2022-10-05T06:00:15.034Z,100.00
2022-10-05T06:02:52.822Z,100.00
2022-10-05T06:05:25.006Z,100.00
2022-10-05T06:07:53.866Z,100.00
2022-10-05T06:10:41.548Z,100.00
2022-10-05T06:13:17.339Z,100.00
2022-10-05T06:15:43.807Z,100.00
2022-10-05T06:18:20.317Z,100.00
2022-10-05T06:21:03.587Z,100.00
2022-10-05T06:23:39.213Z,100.00
2022-10-05T06:26:21.194Z,100.00
2022-10-05T06:29:00.749Z,100.00
2022-10-05T06:31:58.919Z,100.00
2022-10-05T06:35:04.930Z,100.00
2022-10-05T06:37:31.295Z,100.00
2022-10-05T06:40:01.368Z,100.00
2022-10-05T06:42:45.098Z,100.00
2022-10-05T06:45:17.594Z,100.00
2022-10-05T06:48:02.817Z,100.00
2022-10-05T06:50:48.540Z,100.00
2022-10-05T06:53:27.969Z,100.00
2022-10-05T06:56:10.107Z,100.00
2022-10-05T06:58:45.359Z,100.00
2022-10-05T07:01:35.237Z,100.00
2022-10-05T07:04:13.932Z,100.00
2022-10-05T07:06:49.706Z,100.00
2022-10-05T07:09:25.256Z,100.00
2022-10-05T07:12:19.971Z,100.00
2022-10-05T07:15:15.349Z,100.00
2022-10-05T07:17:44.164Z,100.00
2022-10-05T07:20:29.163Z,100.00
2022-10-05T07:23:04.119Z,100.00
2022-10-05T07:25:50.096Z,100.00
2022-10-05T07:28:31.630Z,100.00
2022-10-05T07:31:17.555Z,100.00
2022-10-05T07:33:57.659Z,100.00
2022-10-05T07:37:03.082Z,100.00
2022-10-05T07:39:58.319Z,100.00
2022-10-05T07:42:36.378Z,100.00
2022-10-05T07:45:21.145Z,100.00
2022-10-05T07:47:55.038Z,100.00
2022-10-05T07:50:36.817Z,99.30
2022-10-05T07:53:22.904Z,98.82
2022-10-05T07:55:55.803Z,94.34
2022-10-05T07:58:38.501Z,93.21
2022-10-05T08:01:19.258Z,92.94
2022-10-05T08:03:54.422Z,90.75
2022-10-05T08:06:49.382Z,90.63
2022-10-05T08:09:22.236Z,89.79
2022-10-05T08:11:57.642Z,90.19
2022-10-05T08:14:46.051Z,86.02
2022-10-05T08:17:25.602Z,85.19
2022-10-05T08:20:30.299Z,83.49
2022-10-05T08:23:19.759Z,81.83
2022-10-05T08:26:06.706Z,82.12
2022-10-05T08:28:42.625Z,81.00
2022-10-05T08:31:12.110Z,82.38
2022-10-05T08:34:10.681Z,78.84
2022-10-05T08:36:39.883Z,79.88
2022-10-05T08:39:16.081Z,81.03
2022-10-05T08:42:01.075Z,79.84
2022-10-05T08:44:49.535Z,74.13
2022-10-05T08:47:18.985Z,74.76
2022-10-05T08:50:07.507Z,73.49
2022-10-05T08:52:52.400Z,73.41
2022-10-05T08:55:33.863Z,71.72
2022-10-05T08:58:18.643Z,73.04
2022-10-05T09:01:06.212Z,72.60
2022-10-05T09:03:35.766Z,71.31
2022-10-05T09:06:27.035Z,69.93
2022-10-05T09:09:15.046Z,70.63
2022-10-05T09:11:57.558Z,70.74
2022-10-05T09:14:52.472Z,69.64
2022-10-05T09:17:42.776Z,68.21
2022-10-05T09:20:18.521Z,67.92
2022-10-05T09:22:51.066Z,65.29
2022-10-05T09:25:46.543Z,65.96
2022-10-05T09:28:29.851Z,65.20
2022-10-05T09:31:22.645Z,63.00
2022-10-05T09:34:21.197Z,62.28
2022-10-05T09:36:47.599Z,61.50
2022-10-05T09:39:43.635Z,60.46
2022-10-05T09:42:16.178Z,60.48
2022-10-05T09:45:07.483Z,60.29
2022-10-05T09:47:46.171Z,60.82
2022-10-05T09:50:40.949Z,57.93
2022-10-05T09:53:32.922Z,57.31
2022-10-05T09:56:20.433Z,56.88
2022-10-05T09:59:18.044Z,58.44
2022-10-05T10:02:14.081Z,55.78
2022-10-05T10:05:01.757Z,56.31
2022-10-05T10:07:50.522Z,55.52
2022-10-05T10:10:29.262Z,55.92
2022-10-05T10:13:14.600Z,54.94
2022-10-05T10:16:13.449Z,56.95
2022-10-05T10:19:24.617Z,52.74
2022-10-05T10:22:05.982Z,53.22
2022-10-05T10:24:47.522Z,51.10
2022-10-05T10:27:35.674Z,51.11
2022-10-05T10:30:38.309Z,50.69
2022-10-05T10:33:31.656Z,50.40
2022-10-05T10:36:11.630Z,51.90
2022-10-05T10:38:59.467Z,47.88
2022-10-05T10:41:34.091Z,47.26
2022-10-05T10:44:38.025Z,47.85
2022-10-05T10:47:30.824Z,46.64
2022-10-05T10:50:04.990Z,46.97
2022-10-05T10:52:49.987Z,47.10
2022-10-05T10:55:41.259Z,48.15
2022-10-05T10:58:26.540Z,47.12
2022-10-05T11:01:06.772Z,46.18
2022-10-05T11:04:03.790Z,45.70
2022-10-05T11:06:40.363Z,46.37
2022-10-05T11:09:08.273Z,46.78
2022-10-05T11:11:53.303Z,46.74
2022-10-05T11:14:22.712Z,45.28
2022-10-05T11:17:20.130Z,46.67
2022-10-05T11:20:04.368Z,45.55
2022-10-05T11:22:58.531Z,42.63
2022-10-05T11:26:01.541Z,42.54
2022-10-05T11:28:30.795Z,41.06
2022-10-05T11:31:19.137Z,39.92
2022-10-05T11:34:17.345Z,40.01
2022-10-05T11:36:53.710Z,39.00
2022-10-05T11:39:25.954Z,38.05
2022-10-05T11:42:10.869Z,37.60
2022-10-05T11:44:58.058Z,37.37
2022-10-05T11:47:29.187Z,36.94
2022-10-05T11:50:14.095Z,35.01
2022-10-05T11:52:52.210Z,34.67
2022-10-05T11:55:42.195Z,33.66
2022-10-05T11:58:25.411Z,34.61
2022-10-05T12:01:01.787Z,34.11
2022-10-05T12:03:58.718Z,33.82
2022-10-05T12:06:53.554Z,32.96
2022-10-05T12:09:40.944Z,32.34
2022-10-05T12:12:22.997Z,32.80
2022-10-05T12:15:02.808Z,32.97
2022-10-05T12:17:46.333Z,34.19
2022-10-05T12:20:26.577Z,34.93
2022-10-05T12:23:12.948Z,35.46
2022-10-05T12:25:49.787Z,35.29
2022-10-05T12:28:23.546Z,36.09
2022-10-05T12:31:13.397Z,36.10
2022-10-05T12:34:05.478Z,36.24
2022-10-05T12:37:04.086Z,35.29
2022-10-05T12:39:50.002Z,34.55
2022-10-05T12:42:36.979Z,34.98
2022-10-05T12:45:18.116Z,33.47
2022-10-05T12:47:51.509Z,33.38
2022-10-05T12:50:20.955Z,33.01
2022-10-05T12:53:02.399Z,33.00
2022-10-05T12:55:40.893Z,32.52
2022-10-05T12:58:17.093Z,32.70
2022-10-05T13:01:05.284Z,32.11
2022-10-05T13:03:39.240Z,33.15
2022-10-05T13:06:12.591Z,33.78
2022-10-05T13:08:50.194Z,34.10
2022-10-05T13:11:32.495Z,33.48
2022-10-05T13:14:17.219Z,33.52
2022-10-05T13:16:54.785Z,34.82
2022-10-05T13:19:32.439Z,35.20
2022-10-05T13:22:27.372Z,36.08
2022-10-05T13:25:03.007Z,35.75
2022-10-05T13:27:38.292Z,34.99
2022-10-05T13:30:20.117Z,33.71
2022-10-05T13:33:04.298Z,34.71
2022-10-05T13:35:45.126Z,34.02
2022-10-05T13:38:43.052Z,34.12
2022-10-05T13:41:34.340Z,34.42
2022-10-05T13:44:21.022Z,34.65
2022-10-05T13:47:12.503Z,34.70
2022-10-05T13:49:53.711Z,33.63
2022-10-05T13:52:56.234Z,34.57
2022-10-05T13:55:41.141Z,35.82
2022-10-05T13:58:12.943Z,36.03
2022-10-05T14:00:54.766Z,36.76
2022-10-05T14:03:38.490Z,38.03
2022-10-05T14:06:13.547Z,38.95
2022-10-05T14:08:52.696Z,38.90
2022-10-05T14:11:31.266Z,39.86
2022-10-05T14:14:14.663Z,39.24
2022-10-05T14:16:52.080Z,39.23
2022-10-05T14:19:40.164Z,39.87
2022-10-05T14:22:24.167Z,41.35
2022-10-05T14:24:56.539Z,41.75
2022-10-05T14:27:26.687Z,41.20
2022-10-05T14:29:58.332Z,42.14
2022-10-05T14:32:27.357Z,39.97
2022-10-05T14:35:15.647Z,40.80
2022-10-05T14:38:00.480Z,41.83
2022-10-05T14:40:37.916Z,42.28
2022-10-05T14:43:19.519Z,42.60
2022-10-05T14:46:23.100Z,43.00
2022-10-05T14:49:21.074Z,43.96
2022-10-05T14:51:49.136Z,44.27
2022-10-05T14:54:41.277Z,45.01
2022-10-05T14:57:33.531Z,44.25
2022-10-05T15:00:16.505Z,45.29
2022-10-05T15:03:19.810Z,44.78
2022-10-05T15:06:08.605Z,45.68
2022-10-05T15:08:45.245Z,45.75
2022-10-05T15:11:42.634Z,45.99
2022-10-05T15:14:19.688Z,46.27
2022-10-05T15:17:02.502Z,45.49
2022-10-05T15:19:38.523Z,46.33
2022-10-05T15:22:28.458Z,46.38
2022-10-05T15:25:23.111Z,46.87
2022-10-05T15:28:05.724Z,47.54
2022-10-05T15:30:37.808Z,48.46
2022-10-05T15:33:09.203Z,50.05
2022-10-05T15:35:48.035Z,49.75
2022-10-05T15:38:23.775Z,51.52
2022-10-05T15:41:02.359Z,50.23
2022-10-05T15:43:50.266Z,50.49
2022-10-05T15:46:34.508Z,51.40
2022-10-05T15:49:08.459Z,51.70
2022-10-05T15:51:37.875Z,52.87
2022-10-05T15:54:43.254Z,52.20
2022-10-05T15:57:27.684Z,54.04
2022-10-05T16:00:02.003Z,56.63
2022-10-05T16:02:51.997Z,52.23
2022-10-05T16:06:08.239Z,54.14
2022-10-05T16:08:53.113Z,54.19
2022-10-05T16:11:51.561Z,55.67
2022-10-05T16:14:38.904Z,54.37
2022-10-05T16:17:19.664Z,57.35
2022-10-05T16:20:20.653Z,58.07
2022-10-05T16:22:49.773Z,58.27
2022-10-05T16:25:20.254Z,60.20
2022-10-05T16:28:05.670Z,58.75
2022-10-05T16:30:58.802Z,60.06
2022-10-05T16:33:37.370Z,59.45
2022-10-05T16:36:10.367Z,60.04
2022-10-05T16:38:39.897Z,61.93
2022-10-05T16:41:15.198Z,62.82
2022-10-05T16:43:49.388Z,64.60
2022-10-05T16:46:43.520Z,61.17
2022-10-05T16:49:25.030Z,64.32
2022-10-05T16:52:05.508Z,66.20
2022-10-05T16:54:52.683Z,66.99
2022-10-05T16:57:28.564Z,65.07
2022-10-05T17:00:09.897Z,66.56
2022-10-05T17:03:04.627Z,66.80
2022-10-05T17:06:10.430Z,65.93
2022-10-05T17:09:11.091Z,64.40
2022-10-05T17:12:02.281Z,67.22
2022-10-05T17:14:28.735Z,67.97
2022-10-05T17:17:03.162Z,68.19
2022-10-05T17:20:00.409Z,67.48
2022-10-05T17:22:49.012Z,69.42
2022-10-05T17:25:40.046Z,70.13
2022-10-05T17:28:18.768Z,70.82
2022-10-05T17:31:06.570Z,71.83
2022-10-05T17:33:34.476Z,71.33
2022-10-05T17:36:04.611Z,71.05
2022-10-05T17:38:31.076Z,71.99
2022-10-05T17:41:00.483Z,72.38
2022-10-05T17:43:31.819Z,73.40
2022-10-05T17:46:00.734Z,73.95
2022-10-05T17:48:50.159Z,73.92
2022-10-05T17:51:47.602Z,73.64
2022-10-05T17:55:15.536Z,74.67
2022-10-05T17:57:42.172Z,72.88
2022-10-05T18:00:40.747Z,75.11
2022-10-05T18:03:41.590Z,76.01
2022-10-05T18:06:52.674Z,74.83
2022-10-05T18:09:33.203Z,75.65
2022-10-05T18:12:11.365Z,76.77
2022-10-05T18:15:01.477Z,76.29
2022-10-05T18:17:57.437Z,75.86
2022-10-05T18:20:23.934Z,75.45
2022-10-05T18:22:53.016Z,77.59
2022-10-05T18:25:27.201Z,77.45
2022-10-05T18:28:03.955Z,77.86
2022-10-05T18:30:40.671Z,78.21
2022-10-05T18:33:33.675Z,76.26
2022-10-05T18:36:37.872Z,78.34
2022-10-05T18:39:28.856Z,77.96
2022-10-05T18:42:14.242Z,78.50
2022-10-05T18:44:55.443Z,77.15
2022-10-05T18:47:49.617Z,78.59
2022-10-05T18:50:25.689Z,78.93
2022-10-05T18:53:02.623Z,79.10
2022-10-05T18:55:36.064Z,80.41
2022-10-05T18:58:02.593Z,80.62
2022-10-05T19:00:59.968Z,80.89
2022-10-05T19:03:39.880Z,82.00
2022-10-05T19:06:20.411Z,81.97
2022-10-05T19:09:13.287Z,82.92
2022-10-05T19:12:18.414Z,82.69
2022-10-05T19:15:17.122Z,81.59
2022-10-05T19:18:29.041Z,81.00
2022-10-05T19:21:07.042Z,81.99
2022-10-05T19:23:47.597Z,82.33
2022-10-05T19:26:15.828Z,82.68
2022-10-05T19:29:05.549Z,82.75
2022-10-05T19:31:49.781Z,81.17
2022-10-05T19:34:39.049Z,82.18
2022-10-05T19:37:14.228Z,81.36
2022-10-05T19:39:58.690Z,82.21
2022-10-05T19:43:03.172Z,83.61
2022-10-05T19:45:34.368Z,83.69
2022-10-05T19:48:07.556Z,83.25
2022-10-05T19:50:37.640Z,84.19
2022-10-05T19:53:22.898Z,84.00
2022-10-05T19:55:49.436Z,83.73
2022-10-05T19:58:27.629Z,82.31
2022-10-05T20:01:01.325Z,84.20
2022-10-05T20:03:30.282Z,84.51
2022-10-05T20:05:59.215Z,85.07
2022-10-05T20:08:27.607Z,84.04
2022-10-05T20:11:17.477Z,84.17
2022-10-05T20:14:06.773Z,86.27
2022-10-05T20:16:52.785Z,85.43
2022-10-05T20:19:47.676Z,83.45
2022-10-05T20:22:34.398Z,83.94
2022-10-05T20:25:06.237Z,84.80
2022-10-05T20:27:37.269Z,85.99
2022-10-05T20:30:05.272Z,85.25
2022-10-05T20:32:31.806Z,84.51
2022-10-05T20:34:58.421Z,84.95
2022-10-05T20:37:25.262Z,83.45
2022-10-05T20:39:52.091Z,85.36
2022-10-05T20:42:20.306Z,85.21
2022-10-05T20:44:47.006Z,85.18
2022-10-05T20:47:13.844Z,86.23
2022-10-05T20:49:41.350Z,86.37
2022-10-05T20:52:10.209Z,86.27
2022-10-05T20:54:38.117Z,87.49
2022-10-05T20:57:06.243Z,85.28
2022-10-05T20:59:33.742Z,86.30
2022-10-05T21:02:01.601Z,87.82
2022-10-05T21:04:40.872Z,85.74
2022-10-05T21:07:08.321Z,87.33
2022-10-05T21:09:37.929Z,87.21
2022-10-05T21:12:04.789Z,87.82
2022-10-05T21:14:34.259Z,88.00
2022-10-05T21:17:01.968Z,87.90
2022-10-05T21:19:29.501Z,88.00
2022-10-05T21:21:59.663Z,88.24
2022-10-05T21:24:26.311Z,86.99
2022-10-05T21:26:55.247Z,86.67
2022-10-05T21:29:22.138Z,86.57
2022-10-05T21:31:49.074Z,86.35
2022-10-05T21:34:15.794Z,86.16
2022-10-05T21:36:42.268Z,87.96
2022-10-05T21:39:08.799Z,87.85
2022-10-05T21:41:35.371Z,85.89
2022-10-05T21:44:02.090Z,87.33
2022-10-05T21:46:29.579Z,86.92
2022-10-05T21:48:56.283Z,87.20
2022-10-05T21:51:25.005Z,88.32
2022-10-05T21:53:55.595Z,87.16
2022-10-05T21:56:25.279Z,88.32
2022-10-05T21:58:52.239Z,88.00
2022-10-05T22:01:22.466Z,89.61
2022-10-05T22:03:49.640Z,88.72
2022-10-05T22:06:16.196Z,89.35
2022-10-05T22:08:42.755Z,89.96
2022-10-05T22:11:17.657Z,89.90
2022-10-05T22:13:47.634Z,89.66
2022-10-05T22:16:15.763Z,90.15
2022-10-05T22:18:42.902Z,91.19
2022-10-05T22:21:12.080Z,90.98
2022-10-05T22:23:43.569Z,91.42
2022-10-05T22:26:13.275Z,91.86
2022-10-05T22:28:40.946Z,89.66
2022-10-05T22:31:09.506Z,91.01
2022-10-05T22:33:37.064Z,91.47
2022-10-05T22:36:05.521Z,91.72
2022-10-05T22:38:32.614Z,91.63
2022-10-05T22:40:59.488Z,91.17
2022-10-05T22:43:27.091Z,90.84
2022-10-05T22:45:54.409Z,91.89
2022-10-05T22:48:20.978Z,91.57
2022-10-05T22:50:47.742Z,91.99
2022-10-05T22:53:14.864Z,92.48
2022-10-05T22:55:41.366Z,92.70
2022-10-05T22:58:07.916Z,92.51
2022-10-05T23:00:56.292Z,92.31
2022-10-05T23:03:21.040Z,91.71
2022-10-05T23:05:47.544Z,90.32
2022-10-05T23:08:14.097Z,91.63
2022-10-05T23:10:40.607Z,92.36
2022-10-05T23:13:07.388Z,93.34
2022-10-05T23:15:34.498Z,92.57
2022-10-05T23:18:01.050Z,92.96
2022-10-05T23:20:27.554Z,91.54
2022-10-05T23:22:54.074Z,92.23
2022-10-05T23:25:22.219Z,92.06
2022-10-05T23:27:48.872Z,92.79
2022-10-05T23:30:15.437Z,92.93
2022-10-05T23:32:44.388Z,93.29
2022-10-05T23:35:12.524Z,93.99
2022-10-05T23:37:41.409Z,94.12
2022-10-05T23:40:11.841Z,94.40
2022-10-05T23:42:39.894Z,93.69
2022-10-05T23:45:08.554Z,93.09
2022-10-05T23:47:35.036Z,93.52
2022-10-05T23:50:01.939Z,94.44
2022-10-05T23:52:28.447Z,94.82
2022-10-05T23:54:55.211Z,95.04
2022-10-05T23:57:21.935Z,94.98
2022-10-05T23:59:50.323Z,94.89
